createdAt,value
2022-09-18T00:02:10.199Z,14.50
2022-09-18T00:04:40.688Z,14.40
2022-09-18T00:07:13.190Z,14.40
2022-09-18T00:09:42.828Z,14.30
2022-09-18T00:12:12.923Z,14.30
2022-09-18T00:14:42.348Z,14.30
2022-09-18T00:17:14.866Z,14.30
2022-09-18T00:19:44.550Z,14.30
2022-09-18T00:22:16.855Z,14.30
2022-09-18T00:24:46.818Z,14.40
2022-09-18T00:27:16.453Z,14.30
2022-09-18T00:29:46.523Z,14.30
2022-09-18T00:32:18.704Z,14.30
2022-09-18T00:34:48.169Z,14.20
2022-09-18T00:37:19.493Z,14.10
2022-09-18T00:39:48.931Z,14.10
2022-09-18T00:42:21.790Z,14.00
2022-09-18T00:44:51.890Z,13.90
2022-09-18T00:47:26.554Z,13.80
2022-09-18T00:49:58.923Z,13.60
2022-09-18T00:52:32.082Z,13.50
2022-09-18T00:55:03.887Z,13.40
2022-09-18T00:57:34.948Z,13.30
2022-09-18T01:00:07.991Z,13.20
2022-09-18T01:02:37.358Z,13.10
2022-09-18T01:05:07.266Z,13.00
2022-09-18T01:07:43.031Z,12.90
2022-09-18T01:10:20.555Z,12.80
2022-09-18T01:12:56.601Z,12.70
2022-09-18T01:15:31.011Z,12.70
2022-09-18T01:18:05.302Z,12.70
2022-09-18T01:20:43.014Z,12.70
2022-09-18T01:23:24.700Z,12.60
2022-09-18T01:26:00.318Z,12.50
2022-09-18T01:28:34.504Z,12.40
2022-09-18T01:31:06.373Z,12.40
2022-09-18T01:33:48.742Z,12.30
2022-09-18T01:36:19.437Z,12.20
2022-09-18T01:38:51.200Z,12.20
2022-09-18T01:41:22.694Z,12.10
2022-09-18T01:43:56.043Z,12.10
2022-09-18T01:46:26.685Z,12.00
2022-09-18T01:49:00.705Z,11.90
2022-09-18T01:51:32.253Z,11.80
2022-09-18T01:54:04.459Z,11.80
2022-09-18T01:56:36.199Z,11.80
2022-09-18T01:59:10.450Z,11.80
2022-09-18T02:01:44.137Z,11.70
2022-09-18T02:04:15.469Z,11.80
2022-09-18T02:06:47.765Z,11.90
2022-09-18T02:09:17.249Z,11.90
2022-09-18T02:11:48.459Z,11.90
2022-09-18T02:14:21.045Z,11.80
2022-09-18T02:16:51.432Z,11.80
2022-09-18T02:19:23.628Z,11.80
2022-09-18T02:21:54.979Z,11.80
2022-09-18T02:24:26.768Z,11.80
2022-09-18T02:26:56.884Z,11.70
2022-09-18T02:29:28.738Z,11.70
2022-09-18T02:31:58.203Z,11.70
2022-09-18T02:34:28.150Z,11.70
2022-09-18T02:37:07.594Z,11.70
2022-09-18T02:39:50.846Z,11.70
2022-09-18T02:42:29.035Z,11.70
2022-09-18T02:45:06.675Z,11.70
2022-09-18T02:47:43.234Z,11.60
2022-09-18T02:50:17.011Z,11.60
2022-09-18T02:52:52.600Z,11.60
2022-09-18T02:55:24.797Z,11.60
2022-09-18T02:57:56.206Z,11.60
2022-09-18T03:00:27.734Z,11.50
2022-09-18T03:02:59.521Z,11.40
2022-09-18T03:05:29.024Z,11.40
2022-09-18T03:07:58.642Z,11.30
2022-09-18T03:10:28.112Z,11.30
2022-09-18T03:12:57.531Z,11.20
2022-09-18T03:15:29.037Z,11.20
2022-09-18T03:17:58.470Z,11.20
2022-09-18T03:20:27.978Z,11.20
2022-09-18T03:22:57.437Z,11.30
2022-09-18T03:25:27.042Z,11.30
2022-09-18T03:27:57.329Z,11.30
2022-09-18T03:30:26.792Z,11.30
2022-09-18T03:32:57.927Z,11.40
2022-09-18T03:35:27.502Z,11.40
2022-09-18T03:37:56.907Z,11.40
2022-09-18T03:40:26.503Z,11.40
2022-09-18T03:42:56.220Z,11.40
2022-09-18T03:45:25.814Z,11.40
2022-09-18T03:47:55.372Z,11.30
2022-09-18T03:50:26.560Z,11.40
2022-09-18T03:52:56.510Z,11.40
2022-09-18T03:55:25.965Z,11.40
2022-09-18T03:57:55.575Z,11.40
2022-09-18T04:00:26.201Z,11.40
2022-09-18T04:02:55.841Z,11.40
2022-09-18T04:05:26.995Z,11.40
2022-09-18T04:07:56.498Z,11.40
2022-09-18T04:10:27.402Z,11.40
2022-09-18T04:12:57.243Z,11.40
2022-09-18T04:15:29.363Z,11.50
2022-09-18T04:17:58.891Z,11.50
2022-09-18T04:20:29.902Z,11.60
2022-09-18T04:22:59.599Z,11.60
2022-09-18T04:25:29.275Z,11.70
2022-09-18T04:27:58.727Z,11.70
2022-09-18T04:30:28.110Z,11.70
2022-09-18T04:32:57.525Z,11.80
2022-09-18T04:35:27.316Z,11.80
2022-09-18T04:37:59.114Z,11.80
2022-09-18T04:40:28.663Z,11.80
2022-09-18T04:42:58.700Z,11.80
2022-09-18T04:45:28.168Z,11.90
2022-09-18T04:47:57.590Z,11.90
2022-09-18T04:50:27.012Z,12.00
2022-09-18T04:52:58.204Z,12.10
2022-09-18T04:55:28.178Z,12.10
2022-09-18T04:57:57.887Z,12.10
2022-09-18T05:00:28.523Z,12.10
2022-09-18T05:02:58.071Z,12.20
2022-09-18T05:05:28.839Z,12.20
2022-09-18T05:08:02.317Z,12.30
2022-09-18T05:10:31.921Z,12.30
2022-09-18T05:13:01.476Z,12.30
2022-09-18T05:15:31.787Z,12.20
2022-09-18T05:18:02.634Z,12.20
2022-09-18T05:20:32.389Z,12.20
2022-09-18T05:23:03.582Z,12.10
2022-09-18T05:25:32.995Z,12.10
2022-09-18T05:28:03.534Z,12.10
2022-09-18T05:30:33.106Z,12.20
2022-09-18T05:33:03.432Z,12.20
2022-09-18T05:35:33.765Z,12.30
2022-09-18T05:38:04.793Z,12.30
2022-09-18T05:40:35.860Z,12.40
2022-09-18T05:43:05.938Z,12.40
2022-09-18T05:45:35.765Z,12.50
2022-09-18T05:48:06.237Z,12.60
2022-09-18T05:50:36.932Z,12.60
2022-09-18T05:53:08.629Z,12.70
2022-09-18T05:55:38.249Z,12.70
2022-09-18T05:58:08.434Z,12.70
2022-09-18T06:00:38.259Z,12.80
2022-09-18T06:03:08.437Z,12.80
2022-09-18T06:05:38.371Z,12.80
2022-09-18T06:08:10.370Z,12.80
2022-09-18T06:10:40.746Z,12.80
2022-09-18T06:13:11.360Z,12.90
2022-09-18T06:15:41.067Z,12.90
2022-09-18T06:18:11.632Z,12.80
2022-09-18T06:20:41.098Z,12.80
2022-09-18T06:23:12.131Z,12.80
2022-09-18T06:25:41.788Z,12.80
2022-09-18T06:28:11.431Z,12.70
2022-09-18T06:30:41.227Z,12.70
2022-09-18T06:33:12.710Z,12.70
2022-09-18T06:35:43.187Z,12.60
2022-09-18T06:38:14.255Z,12.50
2022-09-18T06:40:49.719Z,12.40
2022-09-18T06:43:19.964Z,12.40
2022-09-18T06:45:53.782Z,12.30
2022-09-18T06:48:23.710Z,12.30
2022-09-18T06:50:53.673Z,12.20
2022-09-18T06:53:24.896Z,12.10
2022-09-18T06:55:54.493Z,12.00
2022-09-18T06:58:24.109Z,12.00
2022-09-18T07:00:53.584Z,11.90
2022-09-18T07:03:23.137Z,11.90
2022-09-18T07:05:52.801Z,11.80
2022-09-18T07:08:22.437Z,11.80
2022-09-18T07:10:53.498Z,11.80
2022-09-18T07:13:23.115Z,11.80
2022-09-18T07:15:52.553Z,11.70
2022-09-18T07:18:22.253Z,11.60
2022-09-18T07:20:51.638Z,11.60
2022-09-18T07:23:21.059Z,11.60
2022-09-18T07:25:50.534Z,11.50
2022-09-18T07:28:21.501Z,11.50
2022-09-18T07:30:50.964Z,11.40
2022-09-18T07:33:20.471Z,11.40
2022-09-18T07:35:49.891Z,11.40
2022-09-18T07:38:19.395Z,11.40
2022-09-18T07:40:48.760Z,11.40
2022-09-18T07:43:18.558Z,11.50
2022-09-18T07:45:49.684Z,11.60
2022-09-18T07:48:19.336Z,11.70
2022-09-18T07:50:48.886Z,11.80
2022-09-18T07:53:19.186Z,11.90
2022-09-18T07:55:49.315Z,12.00
2022-09-18T07:58:18.950Z,12.00
2022-09-18T08:00:49.900Z,12.00
2022-09-18T08:03:20.671Z,12.00
2022-09-18T08:05:50.323Z,11.90
2022-09-18T08:08:19.922Z,11.90
2022-09-18T08:10:49.556Z,11.80
2022-09-18T08:13:18.960Z,11.80
2022-09-18T08:15:50.046Z,11.70
2022-09-18T08:18:19.525Z,11.70
2022-09-18T08:20:48.942Z,11.70
2022-09-18T08:23:18.364Z,11.60
2022-09-18T08:25:48.255Z,11.60
2022-09-18T08:28:17.678Z,11.60
2022-09-18T08:30:47.181Z,11.50
2022-09-18T08:33:18.530Z,11.60
2022-09-18T08:35:48.360Z,11.60
2022-09-18T08:38:17.802Z,11.60
2022-09-18T08:41:00.392Z,11.60
2022-09-18T08:43:40.416Z,11.60
2022-09-18T08:46:11.523Z,11.60
2022-09-18T08:48:45.840Z,11.60
2022-09-18T08:51:20.204Z,11.60
2022-09-18T08:53:52.556Z,11.60
2022-09-18T08:56:24.673Z,11.70
2022-09-18T08:58:57.319Z,11.60
2022-09-18T09:01:29.349Z,11.70
2022-09-18T09:04:04.116Z,11.70
2022-09-18T09:06:47.119Z,11.70
2022-09-18T09:09:25.006Z,11.70
2022-09-18T09:11:57.606Z,11.70
2022-09-18T09:14:56.503Z,11.70
2022-09-18T09:17:38.081Z,11.60
2022-09-18T09:20:14.866Z,11.70
2022-09-18T09:22:47.459Z,11.60
2022-09-18T09:25:21.814Z,11.50
2022-09-18T09:27:53.975Z,11.50
2022-09-18T09:30:23.993Z,11.40
2022-09-18T09:32:56.047Z,11.40
2022-09-18T09:35:30.402Z,11.30
2022-09-18T09:38:02.498Z,11.30
2022-09-18T09:40:36.320Z,11.40
2022-09-18T09:43:08.105Z,11.40
2022-09-18T09:45:41.042Z,11.40
2022-09-18T09:48:14.443Z,11.40
2022-09-18T09:50:51.074Z,11.40
2022-09-18T09:53:21.181Z,11.30
2022-09-18T09:55:57.015Z,11.40
2022-09-18T09:58:32.580Z,11.40
2022-09-18T10:01:09.357Z,11.40
2022-09-18T10:03:47.243Z,11.50
2022-09-18T10:06:24.274Z,11.50
2022-09-18T10:09:00.171Z,11.50
2022-09-18T10:11:29.650Z,11.50
2022-09-18T10:14:02.974Z,11.50
2022-09-18T10:16:35.243Z,11.60
2022-09-18T10:19:06.046Z,11.60
2022-09-18T10:21:38.488Z,11.70
2022-09-18T10:24:12.655Z,11.70
2022-09-18T10:26:43.691Z,11.70
2022-09-18T10:29:13.382Z,11.80
2022-09-18T10:31:49.485Z,11.90
2022-09-18T10:34:33.455Z,11.90
2022-09-18T10:37:04.607Z,12.00
2022-09-18T10:39:35.205Z,12.00
2022-09-18T10:42:05.853Z,12.10
2022-09-18T10:44:36.887Z,12.10
2022-09-18T10:47:08.110Z,12.10
2022-09-18T10:49:41.401Z,12.10
2022-09-18T10:52:30.680Z,12.10
2022-09-18T10:55:01.437Z,12.10
2022-09-18T10:57:32.478Z,12.10
2022-09-18T11:00:02.432Z,12.10
2022-09-18T11:02:34.338Z,12.10
2022-09-18T11:05:04.541Z,12.10
2022-09-18T11:07:40.589Z,12.20
2022-09-18T11:10:10.733Z,12.20
2022-09-18T11:12:46.353Z,12.20
2022-09-18T11:15:17.488Z,12.30
2022-09-18T11:17:50.679Z,12.30
2022-09-18T11:20:23.535Z,12.40
2022-09-18T11:22:54.583Z,12.40
2022-09-18T11:25:25.335Z,12.40
2022-09-18T11:27:56.006Z,12.50
2022-09-18T11:30:27.029Z,12.50
2022-09-18T11:32:59.050Z,12.60
2022-09-18T11:35:29.584Z,12.70
2022-09-18T11:38:01.894Z,12.70
2022-09-18T11:40:32.836Z,12.80
2022-09-18T11:43:06.265Z,12.90
2022-09-18T11:45:47.387Z,13.00
2022-09-18T11:48:22.062Z,13.10
2022-09-18T11:50:53.136Z,13.20
2022-09-18T11:53:25.737Z,13.30
2022-09-18T11:55:58.880Z,13.40
2022-09-18T11:58:31.665Z,13.60
2022-09-18T12:01:05.225Z,13.70
2022-09-18T12:03:37.428Z,13.90
2022-09-18T12:06:13.693Z,14.00
2022-09-18T12:08:46.238Z,14.20
2022-09-18T12:11:20.985Z,14.30
2022-09-18T12:13:54.078Z,14.50
2022-09-18T12:16:28.984Z,14.70
2022-09-18T12:19:02.177Z,14.80
2022-09-18T12:21:38.744Z,15.00
2022-09-18T12:24:13.887Z,15.10
2022-09-18T12:26:46.692Z,15.20
2022-09-18T12:29:24.131Z,15.40
2022-09-18T12:32:00.356Z,15.60
2022-09-18T12:34:34.607Z,15.80
2022-09-18T12:37:11.070Z,16.00
2022-09-18T12:39:51.544Z,16.20
2022-09-18T12:42:27.189Z,16.40
2022-09-18T12:45:15.744Z,16.60
2022-09-18T12:47:55.449Z,16.70
2022-09-18T12:50:31.845Z,16.90
2022-09-18T12:53:10.049Z,17.00
2022-09-18T12:55:53.455Z,17.20
2022-09-18T12:58:36.378Z,17.30
2022-09-18T13:01:17.212Z,17.50
2022-09-18T13:03:48.494Z,17.60
2022-09-18T13:06:20.395Z,17.70
2022-09-18T13:08:52.482Z,17.90
2022-09-18T13:11:26.502Z,18.00
2022-09-18T13:13:59.526Z,18.10
2022-09-18T13:16:39.222Z,18.20
2022-09-18T13:19:13.045Z,18.40
2022-09-18T13:21:45.960Z,18.50
2022-09-18T13:24:16.854Z,18.60
2022-09-18T13:26:48.753Z,18.70
2022-09-18T13:29:36.310Z,18.80
2022-09-18T13:32:05.720Z,18.90
2022-09-18T13:34:35.377Z,19.00
2022-09-18T13:37:07.639Z,19.10
2022-09-18T13:39:55.357Z,19.20
2022-09-18T13:42:32.134Z,19.40
2022-09-18T13:45:05.679Z,19.50
2022-09-18T13:47:36.189Z,19.80
2022-09-18T13:50:08.493Z,19.90
2022-09-18T13:52:43.835Z,20.10
2022-09-18T13:55:31.457Z,20.30
2022-09-18T13:58:15.880Z,20.50
2022-09-18T14:00:47.209Z,20.70
2022-09-18T14:03:36.289Z,21.00
2022-09-18T14:06:23.677Z,21.20
2022-09-18T14:08:53.578Z,21.30
2022-09-18T14:11:25.790Z,21.50
2022-09-18T14:13:56.268Z,21.60
2022-09-18T14:16:29.230Z,21.90
2022-09-18T14:19:00.568Z,22.30
2022-09-18T14:21:32.469Z,22.50
2022-09-18T14:24:10.418Z,22.50
2022-09-18T14:26:56.718Z,22.50
2022-09-18T14:29:28.690Z,22.30
2022-09-18T14:32:00.674Z,22.10
2022-09-18T14:34:33.480Z,22.00
2022-09-18T14:37:04.062Z,22.00
2022-09-18T14:39:34.532Z,22.00
2022-09-18T14:42:04.910Z,22.10
2022-09-18T14:44:35.748Z,22.20
2022-09-18T14:47:09.809Z,22.30
2022-09-18T14:49:43.733Z,22.40
2022-09-18T14:52:21.399Z,22.30
2022-09-18T14:54:51.397Z,22.30
2022-09-18T14:57:22.112Z,22.30
2022-09-18T14:59:52.244Z,22.30
2022-09-18T15:02:27.180Z,22.10
2022-09-18T15:04:56.996Z,22.00
2022-09-18T15:07:27.202Z,21.90
2022-09-18T15:09:57.645Z,21.80
2022-09-18T15:12:31.271Z,21.70
2022-09-18T15:15:00.929Z,21.60
2022-09-18T15:17:34.512Z,21.50
2022-09-18T15:20:12.027Z,21.40
2022-09-18T15:22:41.887Z,21.30
2022-09-18T15:25:14.412Z,21.20
2022-09-18T15:27:44.175Z,21.20
2022-09-18T15:30:17.342Z,21.00
2022-09-18T15:32:51.038Z,20.80
2022-09-18T15:35:22.280Z,20.40
2022-09-18T15:37:53.360Z,20.20
2022-09-18T15:40:25.502Z,20.00
2022-09-18T15:42:58.960Z,19.80
2022-09-18T15:45:29.724Z,19.70
2022-09-18T15:48:01.893Z,19.60
2022-09-18T15:50:36.517Z,19.10
2022-09-18T15:53:20.499Z,18.40
2022-09-18T15:55:55.385Z,17.60
2022-09-18T15:58:33.121Z,16.80
2022-09-18T16:01:04.058Z,16.30
2022-09-18T16:03:35.436Z,15.80
2022-09-18T16:06:07.015Z,15.50
2022-09-18T16:08:37.350Z,15.20
2022-09-18T16:11:07.750Z,15.10
2022-09-18T16:13:38.207Z,14.90
2022-09-18T16:16:25.137Z,14.70
2022-09-18T16:18:58.139Z,14.60
2022-09-18T16:21:28.192Z,14.50
2022-09-18T16:23:59.666Z,14.40
2022-09-18T16:26:50.113Z,14.20
2022-09-18T16:29:46.183Z,14.10
2022-09-18T16:32:16.028Z,14.00
2022-09-18T16:34:47.973Z,13.90
2022-09-18T16:37:18.579Z,13.90
2022-09-18T16:39:48.616Z,13.80
2022-09-18T16:42:19.188Z,13.70
2022-09-18T16:44:49.193Z,13.70
2022-09-18T16:47:18.639Z,13.70
2022-09-18T16:49:50.879Z,13.60
2022-09-18T16:52:20.268Z,13.50
2022-09-18T16:54:49.801Z,13.40
2022-09-18T16:57:21.871Z,13.40
2022-09-18T16:59:51.605Z,13.30
2022-09-18T17:02:25.945Z,13.30
2022-09-18T17:04:57.954Z,13.20
2022-09-18T17:07:27.496Z,13.30
2022-09-18T17:09:57.227Z,13.30
2022-09-18T17:12:27.073Z,13.30
2022-09-18T17:14:56.533Z,13.40
2022-09-18T17:17:26.017Z,13.50
2022-09-18T17:19:57.568Z,13.70
2022-09-18T17:22:27.114Z,13.90
2022-09-18T17:24:56.521Z,14.10
2022-09-18T17:27:26.959Z,14.10
2022-09-18T17:29:56.769Z,14.10
2022-09-18T17:32:26.501Z,14.10
2022-09-18T17:34:58.834Z,14.10
2022-09-18T17:37:29.659Z,14.10
2022-09-18T17:40:00.967Z,14.00
2022-09-18T17:42:30.751Z,13.90
2022-09-18T17:45:01.259Z,13.80
2022-09-18T17:47:31.849Z,13.70
2022-09-18T17:50:05.644Z,13.60
2022-09-18T17:52:37.088Z,13.50
2022-09-18T17:55:07.216Z,13.40
2022-09-18T17:57:39.716Z,13.30
2022-09-18T18:00:10.320Z,13.30
2022-09-18T18:02:40.195Z,13.20
2022-09-18T18:05:11.605Z,13.10
2022-09-18T18:07:41.103Z,13.10
2022-09-18T18:10:11.040Z,13.10
2022-09-18T18:12:40.520Z,13.00
2022-09-18T18:15:10.478Z,13.00
2022-09-18T18:17:40.790Z,12.90
2022-09-18T18:20:12.486Z,12.90
2022-09-18T18:22:41.913Z,12.90
2022-09-18T18:25:13.028Z,12.90
2022-09-18T18:27:42.484Z,12.90
2022-09-18T18:30:13.414Z,12.90
2022-09-18T18:32:43.703Z,12.90
2022-09-18T18:35:14.909Z,12.90
2022-09-18T18:37:44.918Z,12.90
2022-09-18T18:40:15.161Z,12.90
2022-09-18T18:42:44.813Z,12.90
2022-09-18T18:45:14.582Z,12.90
2022-09-18T18:47:51.381Z,12.90
2022-09-18T18:50:22.559Z,12.90
2022-09-18T18:52:52.126Z,12.90
2022-09-18T18:55:21.547Z,12.90
2022-09-18T18:57:53.204Z,12.90
2022-09-18T19:00:27.865Z,12.90
2022-09-18T19:02:57.337Z,12.90
2022-09-18T19:05:30.994Z,12.90
2022-09-18T19:08:00.475Z,12.90
2022-09-18T19:10:30.627Z,12.80
2022-09-18T19:13:00.587Z,12.80
2022-09-18T19:15:30.116Z,12.80
2022-09-18T19:18:01.088Z,12.80
2022-09-18T19:20:32.108Z,12.80
2022-09-18T19:23:01.707Z,12.80
2022-09-18T19:25:31.372Z,12.80
2022-09-18T19:28:00.986Z,12.80
2022-09-18T19:30:30.507Z,12.80
2022-09-18T19:33:00.141Z,12.80
2022-09-18T19:35:29.800Z,12.80
2022-09-18T19:38:01.885Z,12.80
2022-09-18T19:40:32.683Z,12.80
2022-09-18T19:43:03.329Z,12.70
2022-09-18T19:45:35.009Z,12.80
2022-09-18T19:48:07.662Z,12.70
2022-09-18T19:50:39.156Z,12.70
2022-09-18T19:53:10.172Z,12.70
2022-09-18T19:55:39.780Z,12.70
2022-09-18T19:58:12.317Z,12.70
2022-09-18T20:00:44.684Z,12.70
2022-09-18T20:03:15.124Z,12.70
2022-09-18T20:05:45.278Z,12.70
2022-09-18T20:08:16.279Z,12.60
2022-09-18T20:10:46.113Z,12.60
2022-09-18T20:13:15.718Z,12.50
2022-09-18T20:15:46.399Z,12.50
2022-09-18T20:18:15.987Z,12.50
2022-09-18T20:20:50.401Z,12.60
2022-09-18T20:23:21.427Z,12.60
2022-09-18T20:25:51.963Z,12.60
2022-09-18T20:28:22.812Z,12.50
2022-09-18T20:30:52.394Z,12.60
2022-09-18T20:33:21.843Z,12.60
2022-09-18T20:35:57.041Z,12.60
2022-09-18T20:38:28.086Z,12.50
2022-09-18T20:41:04.807Z,12.50
2022-09-18T20:43:39.327Z,12.50
2022-09-18T20:46:13.033Z,12.40
2022-09-18T20:48:43.341Z,12.30
2022-09-18T20:51:13.336Z,12.30
2022-09-18T20:53:46.342Z,12.30
2022-09-18T20:56:16.624Z,12.30
2022-09-18T20:58:46.074Z,12.30
2022-09-18T21:01:18.205Z,12.30
2022-09-18T21:03:48.842Z,12.40
2022-09-18T21:06:23.294Z,12.40
2022-09-18T21:08:55.863Z,12.40
2022-09-18T21:11:25.950Z,12.40
2022-09-18T21:13:56.549Z,12.50
2022-09-18T21:16:26.717Z,12.40
2022-09-18T21:18:58.323Z,12.40
2022-09-18T21:21:28.139Z,12.40
2022-09-18T21:24:01.909Z,12.30
2022-09-18T21:26:36.532Z,12.30
2022-09-18T21:29:07.425Z,12.30
2022-09-18T21:31:42.936Z,12.30
2022-09-18T21:34:13.521Z,12.20
2022-09-18T21:36:45.527Z,12.20
2022-09-18T21:39:16.703Z,12.20
2022-09-18T21:41:48.286Z,12.10
2022-09-18T21:44:18.637Z,12.20
2022-09-18T21:46:48.312Z,12.10
2022-09-18T21:49:18.176Z,12.20
2022-09-18T21:51:48.832Z,12.10
2022-09-18T21:54:21.282Z,12.10
2022-09-18T21:56:52.649Z,12.10
2022-09-18T21:59:22.857Z,12.10
2022-09-18T22:01:55.530Z,12.10
2022-09-18T22:04:26.854Z,12.10
2022-09-18T22:06:57.686Z,12.10
2022-09-18T22:09:29.479Z,12.10
2022-09-18T22:11:59.248Z,12.10
2022-09-18T22:14:30.663Z,12.10
2022-09-18T22:17:00.458Z,12.10
2022-09-18T22:19:30.372Z,12.10
2022-09-18T22:21:59.787Z,12.10
2022-09-18T22:24:40.798Z,12.10
2022-09-18T22:27:11.146Z,12.10
2022-09-18T22:29:41.765Z,12.10
2022-09-18T22:32:12.213Z,12.10
2022-09-18T22:34:42.262Z,12.10
2022-09-18T22:37:12.210Z,12.10
2022-09-18T22:39:43.766Z,12.10
2022-09-18T22:42:13.247Z,12.10
2022-09-18T22:44:42.893Z,12.10
2022-09-18T22:47:12.526Z,12.10
2022-09-18T22:49:42.118Z,12.10
2022-09-18T22:52:11.565Z,12.10
2022-09-18T22:54:42.766Z,12.10
2022-09-18T22:57:12.249Z,12.10
2022-09-18T22:59:41.678Z,12.10
2022-09-18T23:02:11.328Z,12.10
2022-09-18T23:04:41.703Z,12.10
2022-09-18T23:07:11.401Z,12.10
2022-09-18T23:09:41.139Z,12.10
2022-09-18T23:12:12.279Z,12.10
2022-09-18T23:14:41.678Z,12.10
2022-09-18T23:17:11.772Z,12.10
2022-09-18T23:19:41.846Z,12.10
2022-09-18T23:22:13.448Z,12.10
2022-09-18T23:24:42.963Z,12.10
2022-09-18T23:27:15.534Z,12.10
2022-09-18T23:29:45.695Z,12.10
2022-09-18T23:32:15.298Z,12.20
2022-09-18T23:34:46.231Z,12.10
2022-09-18T23:37:22.409Z,12.10
2022-09-18T23:39:51.924Z,12.10
2022-09-18T23:42:24.456Z,12.10
2022-09-18T23:44:54.824Z,12.10
2022-09-18T23:47:24.294Z,12.10
2022-09-18T23:49:53.781Z,12.10
2022-09-18T23:52:23.265Z,12.20
2022-09-18T23:54:52.762Z,12.10
2022-09-18T23:57:45.907Z,12.10
